sensor_id;sensor_type;location;lat;lon;timestamp;P1;durP1;ratioP1;P2;durP2;ratioP2
11614;SDS011;5863;52.832;4.758;2023-09-19T00:00:15;6.85;;;1.70;;
11614;SDS011;5863;52.832;4.758;2023-09-19T00:02:44;5.53;;;1.70;;
11614;SDS011;5863;52.832;4.758;2023-09-19T00:05:13;9.38;;;1.98;;
11614;SDS011;5863;52.832;4.758;2023-09-19T00:07:40;6.25;;;1.92;;
11614;SDS011;5863;52.832;4.758;2023-09-19T00:10:07;6.13;;;1.85;;
11614;SDS011;5863;52.832;4.758;2023-09-19T00:12:35;6.95;;;1.85;;
11614;SDS011;5863;52.832;4.758;2023-09-19T00:15:01;5.95;;;1.70;;
11614;SDS011;5863;52.832;4.758;2023-09-19T00:17:29;5.45;;;1.77;;
11614;SDS011;5863;52.832;4.758;2023-09-19T00:19:56;11.18;;;2.20;;
11614;SDS011;5863;52.832;4.758;2023-09-19T00:22:24;8.68;;;2.25;;
11614;SDS011;5863;52.832;4.758;2023-09-19T00:24:51;8.73;;;2.40;;
11614;SDS011;5863;52.832;4.758;2023-09-19T00:27:20;7.78;;;1.73;;
11614;SDS011;5863;52.832;4.758;2023-09-19T00:29:47;4.03;;;1.65;;
11614;SDS011;5863;52.832;4.758;2023-09-19T00:32:14;4.82;;;1.50;;
11614;SDS011;5863;52.832;4.758;2023-09-19T00:34:40;5.68;;;1.70;;
11614;SDS011;5863;52.832;4.758;2023-09-19T00:37:07;6.60;;;1.92;;
11614;SDS011;5863;52.832;4.758;2023-09-19T00:39:37;8.60;;;1.60;;
11614;SDS011;5863;52.832;4.758;2023-09-19T00:42:06;4.68;;;1.48;;
11614;SDS011;5863;52.832;4.758;2023-09-19T00:44:33;4.80;;;1.60;;
11614;SDS011;5863;52.832;4.758;2023-09-19T00:47:01;6.90;;;1.73;;
11614;SDS011;5863;52.832;4.758;2023-09-19T00:49:29;5.72;;;1.50;;
11614;SDS011;5863;52.832;4.758;2023-09-19T00:51:58;8.15;;;1.92;;
11614;SDS011;5863;52.832;4.758;2023-09-19T00:54:25;5.78;;;1.77;;
11614;SDS011;5863;52.832;4.758;2023-09-19T00:56:54;9.95;;;2.00;;
11614;SDS011;5863;52.832;4.758;2023-09-19T00:59:21;15.18;;;2.20;;
11614;SDS011;5863;52.832;4.758;2023-09-19T01:01:49;7.72;;;2.35;;
11614;SDS011;5863;52.832;4.758;2023-09-19T01:04:18;7.82;;;1.90;;
11614;SDS011;5863;52.832;4.758;2023-09-19T01:06:45;8.52;;;2.00;;
11614;SDS011;5863;52.832;4.758;2023-09-19T01:09:15;8.50;;;2.38;;
11614;SDS011;5863;52.832;4.758;2023-09-19T01:11:42;8.05;;;1.92;;
11614;SDS011;5863;52.832;4.758;2023-09-19T01:14:15;9.90;;;1.95;;
11614;SDS011;5863;52.832;4.758;2023-09-19T01:16:54;17.05;;;4.32;;
11614;SDS011;5863;52.832;4.758;2023-09-19T01:19:35;8.02;;;2.42;;
11614;SDS011;5863;52.832;4.758;2023-09-19T01:22:34;8.23;;;2.53;;
11614;SDS011;5863;52.832;4.758;2023-09-19T01:28:29;8.38;;;2.05;;
11614;SDS011;5863;52.832;4.758;2023-09-19T01:31:03;7.35;;;1.92;;
11614;SDS011;5863;52.832;4.758;2023-09-19T01:36:26;8.68;;;2.33;;
11614;SDS011;5863;52.832;4.758;2023-09-19T01:38:54;6.45;;;1.73;;
11614;SDS011;5863;52.832;4.758;2023-09-19T01:41:25;7.85;;;2.10;;
11614;SDS011;5863;52.832;4.758;2023-09-19T01:43:55;5.85;;;2.13;;
11614;SDS011;5863;52.832;4.758;2023-09-19T01:46:28;8.73;;;1.95;;
11614;SDS011;5863;52.832;4.758;2023-09-19T01:49:01;6.43;;;2.03;;
11614;SDS011;5863;52.832;4.758;2023-09-19T01:51:37;8.95;;;2.15;;
11614;SDS011;5863;52.832;4.758;2023-09-19T01:54:11;5.50;;;1.83;;
11614;SDS011;5863;52.832;4.758;2023-09-19T01:56:44;8.20;;;1.92;;
11614;SDS011;5863;52.832;4.758;2023-09-19T01:59:17;5.32;;;1.52;;
11614;SDS011;5863;52.832;4.758;2023-09-19T02:01:53;6.03;;;1.67;;
11614;SDS011;5863;52.832;4.758;2023-09-19T02:04:21;8.15;;;1.92;;
11614;SDS011;5863;52.832;4.758;2023-09-19T02:06:48;9.50;;;2.03;;
11614;SDS011;5863;52.832;4.758;2023-09-19T02:09:16;9.00;;;2.22;;
11614;SDS011;5863;52.832;4.758;2023-09-19T02:11:43;6.72;;;1.80;;
11614;SDS011;5863;52.832;4.758;2023-09-19T02:14:12;10.30;;;2.03;;
11614;SDS011;5863;52.832;4.758;2023-09-19T02:16:40;9.20;;;1.90;;
11614;SDS011;5863;52.832;4.758;2023-09-19T02:19:08;9.23;;;2.35;;
11614;SDS011;5863;52.832;4.758;2023-09-19T02:21:35;9.13;;;2.33;;
11614;SDS011;5863;52.832;4.758;2023-09-19T02:24:02;5.82;;;2.03;;
11614;SDS011;5863;52.832;4.758;2023-09-19T02:26:29;8.15;;;2.20;;
11614;SDS011;5863;52.832;4.758;2023-09-19T02:28:56;7.65;;;2.08;;
11614;SDS011;5863;52.832;4.758;2023-09-19T02:31:22;12.98;;;2.70;;
11614;SDS011;5863;52.832;4.758;2023-09-19T02:33:49;8.18;;;2.03;;
11614;SDS011;5863;52.832;4.758;2023-09-19T02:36:17;12.70;;;2.33;;
11614;SDS011;5863;52.832;4.758;2023-09-19T02:38:43;8.38;;;2.03;;
11614;SDS011;5863;52.832;4.758;2023-09-19T02:41:10;7.93;;;2.13;;
11614;SDS011;5863;52.832;4.758;2023-09-19T02:43:37;15.32;;;2.50;;
11614;SDS011;5863;52.832;4.758;2023-09-19T02:46:03;14.73;;;2.63;;
11614;SDS011;5863;52.832;4.758;2023-09-19T02:48:30;8.35;;;2.10;;
11614;SDS011;5863;52.832;4.758;2023-09-19T02:50:59;6.50;;;2.08;;
11614;SDS011;5863;52.832;4.758;2023-09-19T02:53:27;10.27;;;2.30;;
11614;SDS011;5863;52.832;4.758;2023-09-19T02:55:55;11.48;;;2.30;;
11614;SDS011;5863;52.832;4.758;2023-09-19T02:58:22;9.73;;;2.15;;
11614;SDS011;5863;52.832;4.758;2023-09-19T03:00:50;10.93;;;2.30;;
11614;SDS011;5863;52.832;4.758;2023-09-19T03:03:16;12.73;;;2.63;;
11614;SDS011;5863;52.832;4.758;2023-09-19T03:05:43;8.10;;;2.67;;
11614;SDS011;5863;52.832;4.758;2023-09-19T03:08:12;8.63;;;2.08;;
11614;SDS011;5863;52.832;4.758;2023-09-19T03:10:45;12.32;;;3.33;;
11614;SDS011;5863;52.832;4.758;2023-09-19T03:13:12;11.00;;;1.90;;
11614;SDS011;5863;52.832;4.758;2023-09-19T03:15:40;7.40;;;2.20;;
11614;SDS011;5863;52.832;4.758;2023-09-19T03:18:08;5.57;;;2.20;;
11614;SDS011;5863;52.832;4.758;2023-09-19T03:20:35;8.60;;;2.10;;
11614;SDS011;5863;52.832;4.758;2023-09-19T03:23:03;10.80;;;2.00;;
11614;SDS011;5863;52.832;4.758;2023-09-19T03:25:31;6.50;;;2.35;;
11614;SDS011;5863;52.832;4.758;2023-09-19T03:28:01;7.70;;;1.73;;
11614;SDS011;5863;52.832;4.758;2023-09-19T03:30:30;8.27;;;2.00;;
11614;SDS011;5863;52.832;4.758;2023-09-19T03:32:58;8.77;;;2.17;;
11614;SDS011;5863;52.832;4.758;2023-09-19T03:35:25;7.40;;;2.08;;
11614;SDS011;5863;52.832;4.758;2023-09-19T03:37:52;7.10;;;1.60;;
11614;SDS011;5863;52.832;4.758;2023-09-19T03:40:19;5.38;;;1.80;;
11614;SDS011;5863;52.832;4.758;2023-09-19T03:42:46;12.20;;;2.05;;
11614;SDS011;5863;52.832;4.758;2023-09-19T03:45:15;7.22;;;2.10;;
11614;SDS011;5863;52.832;4.758;2023-09-19T03:47:43;11.02;;;2.20;;
11614;SDS011;5863;52.832;4.758;2023-09-19T03:50:12;9.60;;;2.33;;
11614;SDS011;5863;52.832;4.758;2023-09-19T03:52:40;11.63;;;2.60;;
11614;SDS011;5863;52.832;4.758;2023-09-19T03:55:07;6.35;;;2.22;;
11614;SDS011;5863;52.832;4.758;2023-09-19T03:57:34;6.60;;;1.67;;
11614;SDS011;5863;52.832;4.758;2023-09-19T04:00:01;7.95;;;2.08;;
11614;SDS011;5863;52.832;4.758;2023-09-19T04:02:31;7.65;;;2.20;;
11614;SDS011;5863;52.832;4.758;2023-09-19T04:04:58;7.13;;;1.80;;
11614;SDS011;5863;52.832;4.758;2023-09-19T04:07:25;11.48;;;2.30;;
11614;SDS011;5863;52.832;4.758;2023-09-19T04:09:54;9.45;;;2.45;;
11614;SDS011;5863;52.832;4.758;2023-09-19T04:12:20;5.95;;;1.90;;
11614;SDS011;5863;52.832;4.758;2023-09-19T04:14:47;7.53;;;1.95;;
11614;SDS011;5863;52.832;4.758;2023-09-19T04:17:15;9.15;;;2.13;;
11614;SDS011;5863;52.832;4.758;2023-09-19T04:19:43;5.93;;;2.13;;
11614;SDS011;5863;52.832;4.758;2023-09-19T04:22:10;8.60;;;2.05;;
11614;SDS011;5863;52.832;4.758;2023-09-19T04:24:37;9.38;;;2.50;;
11614;SDS011;5863;52.832;4.758;2023-09-19T04:27:04;9.77;;;2.35;;
11614;SDS011;5863;52.832;4.758;2023-09-19T04:29:31;9.45;;;2.25;;
11614;SDS011;5863;52.832;4.758;2023-09-19T04:31:58;9.20;;;2.35;;
11614;SDS011;5863;52.832;4.758;2023-09-19T04:34:24;7.70;;;2.30;;
11614;SDS011;5863;52.832;4.758;2023-09-19T04:36:54;10.43;;;2.42;;
11614;SDS011;5863;52.832;4.758;2023-09-19T04:39:21;11.10;;;2.33;;
11614;SDS011;5863;52.832;4.758;2023-09-19T04:41:50;6.07;;;1.90;;
11614;SDS011;5863;52.832;4.758;2023-09-19T04:44:18;7.05;;;1.65;;
11614;SDS011;5863;52.832;4.758;2023-09-19T04:46:44;9.20;;;2.05;;
11614;SDS011;5863;52.832;4.758;2023-09-19T04:49:11;6.15;;;1.88;;
11614;SDS011;5863;52.832;4.758;2023-09-19T04:51:38;11.52;;;2.53;;
11614;SDS011;5863;52.832;4.758;2023-09-19T04:54:06;7.45;;;2.28;;
11614;SDS011;5863;52.832;4.758;2023-09-19T04:56:33;6.28;;;1.98;;
11614;SDS011;5863;52.832;4.758;2023-09-19T04:58:59;8.95;;;2.28;;
11614;SDS011;5863;52.832;4.758;2023-09-19T05:01:26;10.48;;;2.30;;
11614;SDS011;5863;52.832;4.758;2023-09-19T05:03:52;7.70;;;2.38;;
11614;SDS011;5863;52.832;4.758;2023-09-19T05:06:19;6.30;;;2.15;;
11614;SDS011;5863;52.832;4.758;2023-09-19T05:08:46;11.13;;;2.28;;
11614;SDS011;5863;52.832;4.758;2023-09-19T05:11:17;5.78;;;2.15;;
11614;SDS011;5863;52.832;4.758;2023-09-19T05:13:44;12.95;;;2.65;;
11614;SDS011;5863;52.832;4.758;2023-09-19T05:16:10;9.68;;;2.10;;
11614;SDS011;5863;52.832;4.758;2023-09-19T05:18:37;10.93;;;2.60;;
11614;SDS011;5863;52.832;4.758;2023-09-19T05:21:04;8.75;;;2.25;;
11614;SDS011;5863;52.832;4.758;2023-09-19T05:23:31;7.15;;;2.65;;
11614;SDS011;5863;52.832;4.758;2023-09-19T05:25:57;8.45;;;2.63;;
11614;SDS011;5863;52.832;4.758;2023-09-19T05:28:26;8.88;;;2.47;;
11614;SDS011;5863;52.832;4.758;2023-09-19T05:30:53;6.75;;;2.05;;
11614;SDS011;5863;52.832;4.758;2023-09-19T05:33:20;6.80;;;2.10;;
11614;SDS011;5863;52.832;4.758;2023-09-19T05:35:47;10.80;;;2.30;;
11614;SDS011;5863;52.832;4.758;2023-09-19T05:38:14;6.35;;;2.38;;
11614;SDS011;5863;52.832;4.758;2023-09-19T05:40:44;8.77;;;2.17;;
11614;SDS011;5863;52.832;4.758;2023-09-19T05:43:11;12.63;;;1.90;;
11614;SDS011;5863;52.832;4.758;2023-09-19T05:45:40;10.38;;;2.55;;
11614;SDS011;5863;52.832;4.758;2023-09-19T05:48:07;9.68;;;3.00;;
11614;SDS011;5863;52.832;4.758;2023-09-19T05:50:36;9.57;;;2.10;;
11614;SDS011;5863;52.832;4.758;2023-09-19T05:53:03;10.27;;;2.40;;
11614;SDS011;5863;52.832;4.758;2023-09-19T05:55:30;7.97;;;2.10;;
11614;SDS011;5863;52.832;4.758;2023-09-19T05:57:56;9.10;;;2.42;;
11614;SDS011;5863;52.832;4.758;2023-09-19T06:00:24;7.55;;;2.38;;
11614;SDS011;5863;52.832;4.758;2023-09-19T06:02:54;8.63;;;2.38;;
11614;SDS011;5863;52.832;4.758;2023-09-19T06:05:22;9.57;;;2.30;;
11614;SDS011;5863;52.832;4.758;2023-09-19T06:07:49;9.23;;;2.55;;
11614;SDS011;5863;52.832;4.758;2023-09-19T06:10:17;12.07;;;2.38;;
11614;SDS011;5863;52.832;4.758;2023-09-19T06:12:45;6.35;;;2.35;;
11614;SDS011;5863;52.832;4.758;2023-09-19T06:15:13;10.75;;;2.47;;
11614;SDS011;5863;52.832;4.758;2023-09-19T06:17:46;7.72;;;2.20;;
11614;SDS011;5863;52.832;4.758;2023-09-19T06:20:15;9.65;;;2.90;;
11614;SDS011;5863;52.832;4.758;2023-09-19T06:22:43;7.70;;;2.08;;
11614;SDS011;5863;52.832;4.758;2023-09-19T06:25:12;7.22;;;2.30;;
11614;SDS011;5863;52.832;4.758;2023-09-19T06:27:44;9.32;;;2.28;;
11614;SDS011;5863;52.832;4.758;2023-09-19T06:30:11;8.25;;;2.05;;
11614;SDS011;5863;52.832;4.758;2023-09-19T06:32:38;5.78;;;2.22;;
11614;SDS011;5863;52.832;4.758;2023-09-19T06:35:08;8.23;;;2.60;;
11614;SDS011;5863;52.832;4.758;2023-09-19T06:37:37;12.93;;;2.95;;
11614;SDS011;5863;52.832;4.758;2023-09-19T06:40:05;10.07;;;3.05;;
11614;SDS011;5863;52.832;4.758;2023-09-19T06:42:38;8.32;;;2.20;;
11614;SDS011;5863;52.832;4.758;2023-09-19T06:45:06;7.15;;;2.25;;
11614;SDS011;5863;52.832;4.758;2023-09-19T06:47:33;12.23;;;2.55;;
11614;SDS011;5863;52.832;4.758;2023-09-19T06:50:00;9.40;;;2.28;;
11614;SDS011;5863;52.832;4.758;2023-09-19T06:52:28;7.53;;;2.33;;
11614;SDS011;5863;52.832;4.758;2023-09-19T06:54:56;8.05;;;2.45;;
11614;SDS011;5863;52.832;4.758;2023-09-19T06:57:23;10.88;;;2.53;;
11614;SDS011;5863;52.832;4.758;2023-09-19T06:59:49;8.57;;;2.78;;
11614;SDS011;5863;52.832;4.758;2023-09-19T07:02:16;8.63;;;2.65;;
11614;SDS011;5863;52.832;4.758;2023-09-19T07:04:43;8.68;;;2.30;;
11614;SDS011;5863;52.832;4.758;2023-09-19T07:07:10;8.27;;;2.22;;
11614;SDS011;5863;52.832;4.758;2023-09-19T07:09:37;8.38;;;2.35;;
11614;SDS011;5863;52.832;4.758;2023-09-19T07:12:06;8.10;;;1.88;;
11614;SDS011;5863;52.832;4.758;2023-09-19T07:14:33;9.05;;;2.42;;
11614;SDS011;5863;52.832;4.758;2023-09-19T07:16:59;10.18;;;2.65;;
11614;SDS011;5863;52.832;4.758;2023-09-19T07:19:26;8.48;;;2.08;;
11614;SDS011;5863;52.832;4.758;2023-09-19T07:21:56;11.32;;;2.70;;
11614;SDS011;5863;52.832;4.758;2023-09-19T07:24:24;8.38;;;2.38;;
11614;SDS011;5863;52.832;4.758;2023-09-19T07:26:51;11.88;;;2.90;;
11614;SDS011;5863;52.832;4.758;2023-09-19T07:29:19;10.63;;;2.45;;
11614;SDS011;5863;52.832;4.758;2023-09-19T07:31:46;10.30;;;2.80;;
11614;SDS011;5863;52.832;4.758;2023-09-19T07:34:13;8.20;;;2.30;;
11614;SDS011;5863;52.832;4.758;2023-09-19T07:36:40;10.40;;;2.70;;
11614;SDS011;5863;52.832;4.758;2023-09-19T07:39:07;11.40;;;2.50;;
11614;SDS011;5863;52.832;4.758;2023-09-19T07:41:34;10.50;;;2.80;;
11614;SDS011;5863;52.832;4.758;2023-09-19T07:44:01;6.72;;;2.20;;
11614;SDS011;5863;52.832;4.758;2023-09-19T07:46:28;12.38;;;2.88;;
11614;SDS011;5863;52.832;4.758;2023-09-19T07:48:56;8.15;;;2.42;;
11614;SDS011;5863;52.832;4.758;2023-09-19T07:51:25;10.57;;;3.00;;
11614;SDS011;5863;52.832;4.758;2023-09-19T07:53:52;8.63;;;2.60;;
11614;SDS011;5863;52.832;4.758;2023-09-19T07:56:20;13.23;;;2.75;;
11614;SDS011;5863;52.832;4.758;2023-09-19T07:58:47;9.80;;;2.60;;
11614;SDS011;5863;52.832;4.758;2023-09-19T08:01:14;9.40;;;2.58;;
11614;SDS011;5863;52.832;4.758;2023-09-19T08:03:42;9.93;;;3.17;;
11614;SDS011;5863;52.832;4.758;2023-09-19T08:06:10;7.85;;;2.38;;
11614;SDS011;5863;52.832;4.758;2023-09-19T08:08:38;9.63;;;2.60;;
11614;SDS011;5863;52.832;4.758;2023-09-19T08:11:05;10.02;;;2.42;;
11614;SDS011;5863;52.832;4.758;2023-09-19T08:13:36;13.75;;;3.05;;
11614;SDS011;5863;52.832;4.758;2023-09-19T08:16:06;8.93;;;2.78;;
11614;SDS011;5863;52.832;4.758;2023-09-19T08:18:33;7.03;;;2.40;;
11614;SDS011;5863;52.832;4.758;2023-09-19T08:21:01;11.25;;;2.75;;
11614;SDS011;5863;52.832;4.758;2023-09-19T08:23:27;11.15;;;3.15;;
11614;SDS011;5863;52.832;4.758;2023-09-19T08:25:56;12.35;;;3.40;;
11614;SDS011;5863;52.832;4.758;2023-09-19T08:28:27;15.82;;;4.22;;
11614;SDS011;5863;52.832;4.758;2023-09-19T08:30:54;15.50;;;3.33;;
11614;SDS011;5863;52.832;4.758;2023-09-19T08:33:23;10.00;;;3.08;;
11614;SDS011;5863;52.832;4.758;2023-09-19T08:35:49;7.28;;;3.08;;
11614;SDS011;5863;52.832;4.758;2023-09-19T08:38:17;10.48;;;3.00;;
11614;SDS011;5863;52.832;4.758;2023-09-19T08:40:45;9.93;;;2.58;;
11614;SDS011;5863;52.832;4.758;2023-09-19T08:43:11;10.88;;;3.20;;
11614;SDS011;5863;52.832;4.758;2023-09-19T08:45:38;11.18;;;3.40;;
11614;SDS011;5863;52.832;4.758;2023-09-19T08:48:10;13.98;;;3.03;;
11614;SDS011;5863;52.832;4.758;2023-09-19T08:50:45;12.73;;;3.13;;
11614;SDS011;5863;52.832;4.758;2023-09-19T08:53:16;8.60;;;2.30;;
11614;SDS011;5863;52.832;4.758;2023-09-19T08:55:52;14.75;;;2.78;;
11614;SDS011;5863;52.832;4.758;2023-09-19T08:58:21;11.52;;;3.05;;
11614;SDS011;5863;52.832;4.758;2023-09-19T09:00:54;8.70;;;2.38;;
11614;SDS011;5863;52.832;4.758;2023-09-19T09:03:22;9.18;;;2.78;;
11614;SDS011;5863;52.832;4.758;2023-09-19T09:05:49;8.93;;;2.25;;
11614;SDS011;5863;52.832;4.758;2023-09-19T09:08:17;8.35;;;2.65;;
11614;SDS011;5863;52.832;4.758;2023-09-19T09:10:48;10.57;;;2.42;;
11614;SDS011;5863;52.832;4.758;2023-09-19T09:13:15;13.93;;;3.08;;
11614;SDS011;5863;52.832;4.758;2023-09-19T09:15:43;11.95;;;2.80;;
11614;SDS011;5863;52.832;4.758;2023-09-19T09:18:10;15.60;;;3.05;;
11614;SDS011;5863;52.832;4.758;2023-09-19T09:20:38;9.77;;;2.55;;
11614;SDS011;5863;52.832;4.758;2023-09-19T09:23:05;7.75;;;2.72;;
11614;SDS011;5863;52.832;4.758;2023-09-19T09:25:48;8.85;;;2.63;;
11614;SDS011;5863;52.832;4.758;2023-09-19T09:28:20;8.73;;;2.50;;
11614;SDS011;5863;52.832;4.758;2023-09-19T09:30:48;11.98;;;2.70;;
11614;SDS011;5863;52.832;4.758;2023-09-19T09:33:15;15.25;;;3.33;;
11614;SDS011;5863;52.832;4.758;2023-09-19T09:35:49;10.27;;;2.92;;
11614;SDS011;5863;52.832;4.758;2023-09-19T09:38:18;11.82;;;3.28;;
11614;SDS011;5863;52.832;4.758;2023-09-19T09:40:52;15.93;;;3.90;;
11614;SDS011;5863;52.832;4.758;2023-09-19T09:43:28;15.50;;;2.85;;
11614;SDS011;5863;52.832;4.758;2023-09-19T09:46:06;10.57;;;2.78;;
11614;SDS011;5863;52.832;4.758;2023-09-19T09:48:55;17.38;;;3.35;;
11614;SDS011;5863;52.832;4.758;2023-09-19T09:51:37;13.57;;;3.00;;
11614;SDS011;5863;52.832;4.758;2023-09-19T09:54:09;10.65;;;2.38;;
11614;SDS011;5863;52.832;4.758;2023-09-19T09:56:52;13.35;;;3.13;;
11614;SDS011;5863;52.832;4.758;2023-09-19T10:02:11;12.95;;;2.80;;
11614;SDS011;5863;52.832;4.758;2023-09-19T10:04:38;7.60;;;2.75;;
11614;SDS011;5863;52.832;4.758;2023-09-19T10:07:23;11.15;;;2.55;;
11614;SDS011;5863;52.832;4.758;2023-09-19T10:09:57;10.10;;;2.88;;
11614;SDS011;5863;52.832;4.758;2023-09-19T10:12:41;9.93;;;2.90;;
11614;SDS011;5863;52.832;4.758;2023-09-19T10:15:10;10.20;;;2.70;;
11614;SDS011;5863;52.832;4.758;2023-09-19T10:17:42;16.10;;;3.85;;
11614;SDS011;5863;52.832;4.758;2023-09-19T10:20:12;14.95;;;3.47;;
11614;SDS011;5863;52.832;4.758;2023-09-19T10:23:02;16.90;;;3.90;;
11614;SDS011;5863;52.832;4.758;2023-09-19T10:25:34;15.57;;;4.13;;
11614;SDS011;5863;52.832;4.758;2023-09-19T10:28:05;14.18;;;3.83;;
11614;SDS011;5863;52.832;4.758;2023-09-19T10:30:36;19.65;;;4.22;;
11614;SDS011;5863;52.832;4.758;2023-09-19T10:33:08;12.95;;;3.22;;
11614;SDS011;5863;52.832;4.758;2023-09-19T10:35:36;12.88;;;3.67;;
11614;SDS011;5863;52.832;4.758;2023-09-19T10:38:06;13.13;;;3.72;;
11614;SDS011;5863;52.832;4.758;2023-09-19T10:40:33;13.57;;;3.35;;
11614;SDS011;5863;52.832;4.758;2023-09-19T10:43:06;17.08;;;3.67;;
11614;SDS011;5863;52.832;4.758;2023-09-19T10:45:37;12.07;;;3.35;;
11614;SDS011;5863;52.832;4.758;2023-09-19T10:48:06;11.73;;;3.35;;
11614;SDS011;5863;52.832;4.758;2023-09-19T10:50:35;20.73;;;4.00;;
11614;SDS011;5863;52.832;4.758;2023-09-19T10:53:10;15.73;;;3.10;;
11614;SDS011;5863;52.832;4.758;2023-09-19T10:55:39;10.68;;;3.25;;
11614;SDS011;5863;52.832;4.758;2023-09-19T10:58:07;13.45;;;3.72;;
11614;SDS011;5863;52.832;4.758;2023-09-19T11:00:53;12.90;;;3.00;;
11614;SDS011;5863;52.832;4.758;2023-09-19T11:03:21;10.35;;;3.30;;
11614;SDS011;5863;52.832;4.758;2023-09-19T11:06:05;11.10;;;3.00;;
11614;SDS011;5863;52.832;4.758;2023-09-19T11:14:32;13.63;;;3.30;;
11614;SDS011;5863;52.832;4.758;2023-09-19T11:20:22;10.65;;;3.17;;
11614;SDS011;5863;52.832;4.758;2023-09-19T11:23:17;13.50;;;3.25;;
11614;SDS011;5863;52.832;4.758;2023-09-19T11:25:47;12.25;;;2.85;;
11614;SDS011;5863;52.832;4.758;2023-09-19T11:28:29;12.32;;;3.28;;
11614;SDS011;5863;52.832;4.758;2023-09-19T11:30:58;13.50;;;3.53;;
11614;SDS011;5863;52.832;4.758;2023-09-19T11:33:45;16.73;;;3.05;;
11614;SDS011;5863;52.832;4.758;2023-09-19T11:36:14;13.68;;;3.70;;
11614;SDS011;5863;52.832;4.758;2023-09-19T11:38:57;16.13;;;4.13;;
11614;SDS011;5863;52.832;4.758;2023-09-19T11:41:39;12.48;;;2.83;;
11614;SDS011;5863;52.832;4.758;2023-09-19T11:47:00;16.30;;;3.80;;
11614;SDS011;5863;52.832;4.758;2023-09-19T11:49:29;10.25;;;3.10;;
11614;SDS011;5863;52.832;4.758;2023-09-19T11:51:57;12.52;;;3.40;;
11614;SDS011;5863;52.832;4.758;2023-09-19T11:54:27;11.95;;;3.60;;
11614;SDS011;5863;52.832;4.758;2023-09-19T11:56:56;13.65;;;3.40;;
11614;SDS011;5863;52.832;4.758;2023-09-19T11:59:24;19.38;;;4.18;;
11614;SDS011;5863;52.832;4.758;2023-09-19T12:01:53;14.23;;;3.53;;
11614;SDS011;5863;52.832;4.758;2023-09-19T12:04:32;17.27;;;3.83;;
11614;SDS011;5863;52.832;4.758;2023-09-19T12:07:02;11.98;;;3.60;;
11614;SDS011;5863;52.832;4.758;2023-09-19T12:09:30;15.02;;;3.28;;
11614;SDS011;5863;52.832;4.758;2023-09-19T12:11:57;15.57;;;3.60;;
11614;SDS011;5863;52.832;4.758;2023-09-19T12:14:24;18.33;;;4.65;;
11614;SDS011;5863;52.832;4.758;2023-09-19T12:16:53;14.73;;;4.18;;
11614;SDS011;5863;52.832;4.758;2023-09-19T12:19:21;16.95;;;3.75;;
11614;SDS011;5863;52.832;4.758;2023-09-19T12:21:56;20.65;;;4.68;;
11614;SDS011;5863;52.832;4.758;2023-09-19T12:24:24;19.92;;;4.85;;
11614;SDS011;5863;52.832;4.758;2023-09-19T12:26:54;21.63;;;3.90;;
11614;SDS011;5863;52.832;4.758;2023-09-19T12:29:26;18.27;;;4.93;;
11614;SDS011;5863;52.832;4.758;2023-09-19T12:31:55;19.58;;;4.38;;
11614;SDS011;5863;52.832;4.758;2023-09-19T12:34:23;14.75;;;4.22;;
11614;SDS011;5863;52.832;4.758;2023-09-19T12:37:10;17.45;;;4.13;;
11614;SDS011;5863;52.832;4.758;2023-09-19T12:39:38;20.48;;;4.05;;
11614;SDS011;5863;52.832;4.758;2023-09-19T12:42:07;20.98;;;4.03;;
11614;SDS011;5863;52.832;4.758;2023-09-19T12:44:40;18.38;;;4.35;;
11614;SDS011;5863;52.832;4.758;2023-09-19T12:47:09;19.80;;;4.50;;
11614;SDS011;5863;52.832;4.758;2023-09-19T12:52:39;16.50;;;4.15;;
11614;SDS011;5863;52.832;4.758;2023-09-19T12:55:07;18.00;;;4.53;;
11614;SDS011;5863;52.832;4.758;2023-09-19T12:57:36;16.60;;;4.03;;
11614;SDS011;5863;52.832;4.758;2023-09-19T13:00:05;17.13;;;4.07;;
11614;SDS011;5863;52.832;4.758;2023-09-19T13:02:35;20.98;;;5.38;;
11614;SDS011;5863;52.832;4.758;2023-09-19T13:05:02;20.08;;;4.72;;
11614;SDS011;5863;52.832;4.758;2023-09-19T13:07:43;19.40;;;5.00;;
11614;SDS011;5863;52.832;4.758;2023-09-19T13:10:12;18.85;;;4.65;;
11614;SDS011;5863;52.832;4.758;2023-09-19T13:12:40;18.75;;;4.30;;
11614;SDS011;5863;52.832;4.758;2023-09-19T13:15:09;15.05;;;4.10;;
11614;SDS011;5863;52.832;4.758;2023-09-19T13:17:44;19.30;;;4.72;;
11614;SDS011;5863;52.832;4.758;2023-09-19T13:20:22;20.85;;;5.15;;
11614;SDS011;5863;52.832;4.758;2023-09-19T13:22:55;22.48;;;4.78;;
11614;SDS011;5863;52.832;4.758;2023-09-19T13:25:25;19.27;;;4.68;;
11614;SDS011;5863;52.832;4.758;2023-09-19T13:27:55;19.73;;;5.10;;
11614;SDS011;5863;52.832;4.758;2023-09-19T13:30:23;22.30;;;5.60;;
11614;SDS011;5863;52.832;4.758;2023-09-19T13:32:50;19.67;;;4.85;;
11614;SDS011;5863;52.832;4.758;2023-09-19T13:35:18;16.38;;;4.47;;
11614;SDS011;5863;52.832;4.758;2023-09-19T13:37:45;19.90;;;5.03;;
11614;SDS011;5863;52.832;4.758;2023-09-19T13:40:15;16.45;;;4.45;;
11614;SDS011;5863;52.832;4.758;2023-09-19T13:42:42;21.00;;;5.28;;
11614;SDS011;5863;52.832;4.758;2023-09-19T13:45:09;16.88;;;4.95;;
11614;SDS011;5863;52.832;4.758;2023-09-19T13:47:37;19.40;;;4.80;;
11614;SDS011;5863;52.832;4.758;2023-09-19T13:50:04;16.50;;;4.60;;
11614;SDS011;5863;52.832;4.758;2023-09-19T13:52:31;22.65;;;5.85;;
11614;SDS011;5863;52.832;4.758;2023-09-19T13:54:58;23.15;;;5.47;;
11614;SDS011;5863;52.832;4.758;2023-09-19T13:57:27;21.52;;;5.40;;
11614;SDS011;5863;52.832;4.758;2023-09-19T13:59:54;22.15;;;5.03;;
11614;SDS011;5863;52.832;4.758;2023-09-19T14:02:21;19.02;;;5.00;;
11614;SDS011;5863;52.832;4.758;2023-09-19T14:04:48;23.77;;;5.95;;
11614;SDS011;5863;52.832;4.758;2023-09-19T14:07:15;24.17;;;5.57;;
11614;SDS011;5863;52.832;4.758;2023-09-19T14:09:42;21.55;;;4.93;;
11614;SDS011;5863;52.832;4.758;2023-09-19T14:12:10;20.13;;;5.07;;
11614;SDS011;5863;52.832;4.758;2023-09-19T14:14:38;22.02;;;5.35;;
11614;SDS011;5863;52.832;4.758;2023-09-19T14:17:05;26.83;;;6.03;;
11614;SDS011;5863;52.832;4.758;2023-09-19T14:19:34;25.40;;;6.05;;
11614;SDS011;5863;52.832;4.758;2023-09-19T14:22:01;26.13;;;5.72;;
11614;SDS011;5863;52.832;4.758;2023-09-19T14:24:32;27.92;;;6.30;;
11614;SDS011;5863;52.832;4.758;2023-09-19T14:26:59;25.17;;;5.57;;
11614;SDS011;5863;52.832;4.758;2023-09-19T14:29:25;22.90;;;5.57;;
11614;SDS011;5863;52.832;4.758;2023-09-19T14:31:54;27.15;;;6.03;;
11614;SDS011;5863;52.832;4.758;2023-09-19T14:34:22;19.80;;;5.25;;
11614;SDS011;5863;52.832;4.758;2023-09-19T14:36:49;16.80;;;5.20;;
11614;SDS011;5863;52.832;4.758;2023-09-19T14:39:16;23.85;;;6.13;;
11614;SDS011;5863;52.832;4.758;2023-09-19T14:41:44;23.27;;;5.35;;
11614;SDS011;5863;52.832;4.758;2023-09-19T14:44:11;22.92;;;5.40;;
11614;SDS011;5863;52.832;4.758;2023-09-19T14:46:38;23.35;;;5.63;;
11614;SDS011;5863;52.832;4.758;2023-09-19T14:49:06;19.20;;;4.53;;
11614;SDS011;5863;52.832;4.758;2023-09-19T14:51:35;20.45;;;5.60;;
11614;SDS011;5863;52.832;4.758;2023-09-19T14:54:02;18.20;;;5.35;;
11614;SDS011;5863;52.832;4.758;2023-09-19T14:56:29;21.00;;;5.45;;
11614;SDS011;5863;52.832;4.758;2023-09-19T14:58:56;25.95;;;5.40;;
11614;SDS011;5863;52.832;4.758;2023-09-19T15:01:23;23.33;;;5.28;;
11614;SDS011;5863;52.832;4.758;2023-09-19T15:03:49;20.17;;;5.07;;
11614;SDS011;5863;52.832;4.758;2023-09-19T15:06:17;27.33;;;5.97;;
11614;SDS011;5863;52.832;4.758;2023-09-19T15:08:45;26.33;;;6.45;;
11614;SDS011;5863;52.832;4.758;2023-09-19T15:11:13;24.90;;;5.75;;
11614;SDS011;5863;52.832;4.758;2023-09-19T15:13:42;23.83;;;5.30;;
11614;SDS011;5863;52.832;4.758;2023-09-19T15:16:09;19.80;;;5.22;;
11614;SDS011;5863;52.832;4.758;2023-09-19T15:18:37;24.52;;;6.65;;
11614;SDS011;5863;52.832;4.758;2023-09-19T15:21:05;25.27;;;5.63;;
11614;SDS011;5863;52.832;4.758;2023-09-19T15:23:35;20.23;;;5.25;;
11614;SDS011;5863;52.832;4.758;2023-09-19T15:26:03;23.42;;;5.68;;
11614;SDS011;5863;52.832;4.758;2023-09-19T15:28:30;20.38;;;5.38;;